createdAt,value
2022-08-10T00:02:26.104Z,18.07
2022-08-10T00:04:52.641Z,17.98
2022-08-10T00:07:19.283Z,17.85
2022-08-10T00:09:50.791Z,17.83
2022-08-10T00:12:19.828Z,17.93
2022-08-10T00:14:46.840Z,17.89
2022-08-10T00:17:13.480Z,17.60
2022-08-10T00:20:02.969Z,17.83
2022-08-10T00:22:26.961Z,17.82
2022-08-10T00:24:57.375Z,17.79
2022-08-10T00:27:52.659Z,17.62
2022-08-10T00:30:12.467Z,17.61
2022-08-10T00:32:39.238Z,17.70
2022-08-10T00:35:06.845Z,17.70
2022-08-10T00:37:33.449Z,17.66
2022-08-10T00:40:00.257Z,17.50
2022-08-10T00:42:27.064Z,17.44
2022-08-10T00:44:53.772Z,17.39
2022-08-10T00:47:36.431Z,17.46
2022-08-10T00:50:06.326Z,17.60
2022-08-10T00:52:34.172Z,17.59
2022-08-10T00:55:03.121Z,17.50
2022-08-10T00:57:30.664Z,17.49
2022-08-10T00:59:59.232Z,17.32
2022-08-10T01:02:31.005Z,17.49
2022-08-10T01:05:01.961Z,17.44
2022-08-10T01:07:56.666Z,17.46
2022-08-10T01:10:45.962Z,17.43
2022-08-10T01:13:25.691Z,17.42
2022-08-10T01:16:13.359Z,17.25
2022-08-10T01:19:01.083Z,17.37
2022-08-10T01:21:56.549Z,17.37
2022-08-10T01:24:35.517Z,17.33
2022-08-10T01:27:05.034Z,17.29
2022-08-10T01:29:53.501Z,17.22
2022-08-10T01:32:47.580Z,17.14
2022-08-10T01:35:23.881Z,17.20
2022-08-10T01:38:06.752Z,16.93
2022-08-10T01:40:38.695Z,17.18
2022-08-10T01:43:09.970Z,17.10
2022-08-10T01:45:47.075Z,16.91
2022-08-10T01:48:51.325Z,17.13
2022-08-10T01:51:25.324Z,17.11
2022-08-10T01:54:02.353Z,17.05
2022-08-10T01:56:33.374Z,17.08
2022-08-10T01:59:04.248Z,16.99
2022-08-10T02:01:38.137Z,16.93
2022-08-10T02:04:08.496Z,16.91
2022-08-10T02:06:45.377Z,16.85
2022-08-10T02:09:17.333Z,16.81
2022-08-10T02:12:05.202Z,16.73
2022-08-10T02:14:45.343Z,16.67
2022-08-10T02:17:57.571Z,16.64
2022-08-10T02:20:08.794Z,16.58
2022-08-10T02:22:39.032Z,16.53
2022-08-10T02:25:39.575Z,16.45
2022-08-10T02:27:58.119Z,16.17
2022-08-10T02:30:26.387Z,16.39
2022-08-10T02:32:54.453Z,16.28
2022-08-10T02:35:22.266Z,16.31
2022-08-10T02:37:51.602Z,16.30
2022-08-10T02:45:02.632Z,16.28
2022-08-10T02:45:18.409Z,16.08
2022-08-10T02:46:18.121Z,16.15
2022-08-10T02:48:48.463Z,15.93
2022-08-10T02:51:19.981Z,15.95
2022-08-10T02:54:12.118Z,16.09
2022-08-10T02:56:43.523Z,16.00
2022-08-10T02:59:23.868Z,15.94
2022-08-10T03:01:55.898Z,15.91
2022-08-10T03:04:55.855Z,15.86
2022-08-10T03:07:43.342Z,15.84
2022-08-10T03:10:14.425Z,15.76
2022-08-10T03:12:43.242Z,15.62
2022-08-10T03:15:15.610Z,15.71
2022-08-10T03:17:58.336Z,15.63
2022-08-10T03:20:36.908Z,15.61
2022-08-10T03:23:09.732Z,15.49
2022-08-10T03:25:37.666Z,15.44
2022-08-10T03:28:05.900Z,15.19
2022-08-10T03:30:34.293Z,15.33
2022-08-10T03:33:04.291Z,15.32
2022-08-10T03:35:31.710Z,15.28
2022-08-10T03:37:59.976Z,15.21
2022-08-10T03:40:45.566Z,15.15
2022-08-10T03:43:22.203Z,15.12
2022-08-10T03:45:55.431Z,15.07
2022-08-10T03:48:44.797Z,15.11
2022-08-10T03:51:15.873Z,14.99
2022-08-10T03:54:03.228Z,14.98
2022-08-10T03:56:32.266Z,14.90
2022-08-10T03:59:00.713Z,14.88
2022-08-10T04:02:44.008Z,14.85
2022-08-10T04:04:20.931Z,14.90
2022-08-10T04:06:54.677Z,14.61
2022-08-10T04:09:23.661Z,14.73
2022-08-10T04:11:50.345Z,14.84
2022-08-10T04:14:38.540Z,14.77
2022-08-10T04:17:03.352Z,14.71
2022-08-10T04:19:37.122Z,14.72
2022-08-10T04:22:10.371Z,14.61
2022-08-10T04:24:40.509Z,14.72
2022-08-10T04:27:07.495Z,14.53
2022-08-10T04:29:34.253Z,14.58
2022-08-10T04:32:03.325Z,14.49
2022-08-10T04:34:34.127Z,14.60
2022-08-10T04:37:08.869Z,14.51
2022-08-10T04:39:36.510Z,14.50
2022-08-10T04:42:04.235Z,14.59
2022-08-10T04:44:31.170Z,14.47
2022-08-10T04:46:59.478Z,14.48
2022-08-10T04:49:54.554Z,14.45
2022-08-10T04:52:13.768Z,14.42
2022-08-10T04:54:40.471Z,14.60
2022-08-10T04:57:09.115Z,14.42
2022-08-10T04:59:35.832Z,14.63
2022-08-10T05:02:29.623Z,14.52
2022-08-10T05:04:49.707Z,14.59
2022-08-10T05:07:18.332Z,14.65
2022-08-10T05:10:01.517Z,14.70
2022-08-10T05:12:37.784Z,14.61
2022-08-10T05:15:12.129Z,14.76
2022-08-10T05:17:40.733Z,14.85
2022-08-10T05:20:09.946Z,14.70
2022-08-10T05:22:39.480Z,14.88
2022-08-10T05:25:09.505Z,14.93
2022-08-10T05:27:36.597Z,15.02
2022-08-10T05:30:04.763Z,15.02
2022-08-10T05:32:55.445Z,15.16
2022-08-10T05:35:21.062Z,15.11
2022-08-10T05:38:09.232Z,15.22
2022-08-10T05:40:37.733Z,15.21
2022-08-10T05:43:05.202Z,15.42
2022-08-10T05:45:31.822Z,15.42
2022-08-10T05:48:54.508Z,15.55
2022-08-10T05:50:45.291Z,15.78
2022-08-10T05:53:59.571Z,15.92
2022-08-10T05:55:59.180Z,15.99
2022-08-10T05:58:25.984Z,16.37
2022-08-10T06:00:55.894Z,16.70
2022-08-10T06:03:43.818Z,16.97
2022-08-10T06:06:12.227Z,17.38
2022-08-10T06:08:41.464Z,17.61
2022-08-10T06:12:21.879Z,17.70
2022-08-10T06:14:18.411Z,18.03
2022-08-10T06:16:45.921Z,17.89
2022-08-10T06:19:15.138Z,17.75
2022-08-10T06:21:55.306Z,18.00
2022-08-10T06:24:30.771Z,17.87
2022-08-10T06:26:58.691Z,18.13
2022-08-10T06:29:26.864Z,18.27
2022-08-10T06:31:54.048Z,18.25
2022-08-10T06:34:29.310Z,18.69
2022-08-10T06:36:58.160Z,18.76
2022-08-10T06:39:34.894Z,18.80
2022-08-10T06:42:16.476Z,19.10
2022-08-10T06:44:57.870Z,19.22
2022-08-10T06:47:29.704Z,19.29
2022-08-10T06:50:01.701Z,19.49
2022-08-10T06:52:34.111Z,19.69
2022-08-10T06:55:05.216Z,19.84
2022-08-10T06:57:34.850Z,19.86
2022-08-10T07:00:05.154Z,20.03
2022-08-10T07:02:51.917Z,20.16
2022-08-10T07:05:23.367Z,20.55
2022-08-10T07:07:52.457Z,20.44
2022-08-10T07:10:22.928Z,20.71
2022-08-10T07:12:52.848Z,20.88
2022-08-10T07:15:21.066Z,20.76
2022-08-10T07:17:49.407Z,20.99
2022-08-10T07:20:18.919Z,21.12
2022-08-10T07:23:26.960Z,21.22
2022-08-10T07:25:41.770Z,21.20
2022-08-10T07:28:10.480Z,21.36
2022-08-10T07:30:41.413Z,21.29
2022-08-10T07:33:13.903Z,21.54
2022-08-10T07:35:43.758Z,21.56
2022-08-10T07:38:19.122Z,21.74
2022-08-10T07:40:48.873Z,22.08
2022-08-10T07:43:17.775Z,22.01
2022-08-10T07:45:46.642Z,22.36
2022-08-10T07:48:25.109Z,22.61
2022-08-10T07:51:02.278Z,22.59
2022-08-10T07:53:39.965Z,22.79
2022-08-10T07:56:21.235Z,22.95
2022-08-10T07:59:06.251Z,23.18
2022-08-10T08:01:35.815Z,23.41
2022-08-10T08:04:11.044Z,23.41
2022-08-10T08:06:40.718Z,23.61
2022-08-10T08:09:07.960Z,23.65
2022-08-10T08:11:37.090Z,23.83
2022-08-10T08:14:06.531Z,23.90
2022-08-10T08:16:35.502Z,24.02
2022-08-10T08:24:05.725Z,24.40
2022-08-10T08:24:40.940Z,24.38
2022-08-10T08:27:08.087Z,24.48
2022-08-10T08:29:37.008Z,24.72
2022-08-10T08:32:05.123Z,24.79
2022-08-10T08:34:38.709Z,25.05
2022-08-10T08:37:07.148Z,25.27
2022-08-10T08:39:34.326Z,25.25
2022-08-10T08:42:27.250Z,25.60
2022-08-10T08:45:23.443Z,25.71
2022-08-10T08:48:28.450Z,25.84
2022-08-10T08:52:17.097Z,26.00
2022-08-10T08:54:51.617Z,26.18
2022-08-10T08:57:50.475Z,26.36
2022-08-10T09:00:45.537Z,26.46
2022-08-10T09:03:41.156Z,26.60
2022-08-10T09:06:27.495Z,26.86
2022-08-10T09:09:06.301Z,27.04
2022-08-10T09:11:38.768Z,27.18
2022-08-10T09:14:26.621Z,27.42
2022-08-10T09:17:03.566Z,27.51
2022-08-10T09:19:43.544Z,27.87
2022-08-10T09:22:37.926Z,28.08
2022-08-10T09:25:14.244Z,28.25
2022-08-10T09:27:47.718Z,28.31
2022-08-10T09:30:28.396Z,28.53
2022-08-10T09:36:23.352Z,28.66
2022-08-10T09:36:32.632Z,28.82
2022-08-10T09:40:12.752Z,29.01
2022-08-10T09:42:18.212Z,29.17
2022-08-10T09:44:58.176Z,29.32
2022-08-10T09:48:00.928Z,29.49
2022-08-10T09:53:56.462Z,29.84
2022-08-10T09:56:48.388Z,30.03
2022-08-10T09:59:59.889Z,30.19
2022-08-10T10:02:27.639Z,30.56
2022-08-10T10:05:13.971Z,30.92
2022-08-10T10:07:51.376Z,31.01
2022-08-10T10:10:30.228Z,31.25
2022-08-10T10:13:12.134Z,31.40
2022-08-10T10:16:13.570Z,31.56
2022-08-10T10:18:49.666Z,31.72
2022-08-10T10:21:54.215Z,31.94
2022-08-10T10:24:34.354Z,32.12
2022-08-10T10:27:16.128Z,32.27
2022-08-10T10:30:06.158Z,32.46
2022-08-10T10:32:57.806Z,32.64
2022-08-10T10:35:41.305Z,32.79
2022-08-10T10:38:11.764Z,32.98
2022-08-10T10:41:23.700Z,33.19
2022-08-10T10:44:08.283Z,33.38
2022-08-10T10:47:05.760Z,33.64
2022-08-10T10:49:42.959Z,33.75
2022-08-10T10:52:25.054Z,33.82
2022-08-10T10:55:03.831Z,34.05
2022-08-10T10:58:09.967Z,34.25
2022-08-10T11:01:15.629Z,34.38
2022-08-10T11:03:50.914Z,34.42
2022-08-10T11:06:39.767Z,34.50
2022-08-10T11:10:03.616Z,34.80
2022-08-10T11:12:50.990Z,34.97
2022-08-10T11:15:47.556Z,34.99
2022-08-10T11:18:35.692Z,35.21
2022-08-10T11:21:36.660Z,35.45
2022-08-10T11:24:48.626Z,35.25
2022-08-10T11:27:12.047Z,35.30
2022-08-10T11:30:02.933Z,35.35
2022-08-10T11:32:46.410Z,35.41
2022-08-10T11:35:24.494Z,35.25
2022-08-10T11:38:36.934Z,35.38
2022-08-10T11:42:07.981Z,35.40
2022-08-10T11:44:29.536Z,35.62
2022-08-10T11:47:04.909Z,35.55
2022-08-10T11:49:55.659Z,35.52
2022-08-10T11:52:49.653Z,35.54
2022-08-10T11:55:24.384Z,35.41
2022-08-10T11:57:55.831Z,35.47
2022-08-10T12:00:24.630Z,35.54
2022-08-10T12:03:02.590Z,35.54
2022-08-10T12:05:52.501Z,35.53
2022-08-10T12:10:06.867Z,35.64
2022-08-10T12:11:24.312Z,35.77
2022-08-10T12:14:20.686Z,35.92
2022-08-10T12:17:08.062Z,36.01
2022-08-10T12:19:59.039Z,35.93
2022-08-10T12:22:48.739Z,35.67
2022-08-10T12:25:57.799Z,35.38
2022-08-10T12:28:49.482Z,35.26
2022-08-10T12:31:21.629Z,35.03
2022-08-10T12:34:08.256Z,34.98
2022-08-10T12:36:42.699Z,34.98
2022-08-10T12:40:31.380Z,34.89
2022-08-10T12:44:04.216Z,34.87
2022-08-10T12:46:31.378Z,34.82
2022-08-10T12:49:11.651Z,34.93
2022-08-10T12:51:46.854Z,34.95
2022-08-10T12:54:31.856Z,34.92
2022-08-10T12:57:05.507Z,34.73
2022-08-10T12:59:43.311Z,34.66
2022-08-10T13:02:18.760Z,34.58
2022-08-10T13:04:50.418Z,34.58
2022-08-10T13:08:26.387Z,34.25
2022-08-10T13:10:15.016Z,34.47
2022-08-10T13:12:46.801Z,34.37
2022-08-10T13:15:48.129Z,34.26
2022-08-10T13:18:18.428Z,34.43
2022-08-10T13:20:51.458Z,34.51
2022-08-10T13:23:22.644Z,34.58
2022-08-10T13:25:51.882Z,34.54
2022-08-10T13:28:36.392Z,34.53
2022-08-10T13:31:16.953Z,34.82
2022-08-10T13:34:38.978Z,34.81
2022-08-10T13:36:41.764Z,34.83
2022-08-10T13:39:10.668Z,34.85
2022-08-10T13:41:42.634Z,34.93
2022-08-10T13:44:14.271Z,34.97
2022-08-10T13:46:47.826Z,34.79
2022-08-10T13:49:15.868Z,34.96
2022-08-10T13:51:54.517Z,35.08
2022-08-10T13:54:37.115Z,35.18
2022-08-10T13:57:05.647Z,35.14
2022-08-10T14:00:34.868Z,35.20
2022-08-10T14:02:25.834Z,35.29
2022-08-10T14:04:55.682Z,35.15
2022-08-10T14:07:23.661Z,35.20
2022-08-10T14:09:53.207Z,35.38
2022-08-10T14:12:33.478Z,35.49
2022-08-10T14:15:04.939Z,35.59
2022-08-10T14:17:32.491Z,35.67
2022-08-10T14:20:00.227Z,35.76
2022-08-10T14:22:33.620Z,35.75
2022-08-10T14:25:15.030Z,35.85
2022-08-10T14:28:03.257Z,35.95
2022-08-10T14:30:32.538Z,35.86
2022-08-10T14:33:04.965Z,35.79
2022-08-10T14:36:18.793Z,35.79
2022-08-10T14:38:28.919Z,35.62
2022-08-10T14:40:58.781Z,35.71
2022-08-10T14:43:32.726Z,35.62
2022-08-10T14:46:08.198Z,35.76
2022-08-10T14:48:47.806Z,35.87
2022-08-10T14:51:17.993Z,35.93
2022-08-10T14:53:53.715Z,35.80
2022-08-10T14:56:32.906Z,35.96
2022-08-10T14:59:06.819Z,36.00
2022-08-10T15:02:01.372Z,36.06
2022-08-10T15:04:28.390Z,36.03
2022-08-10T15:07:02.785Z,35.91
2022-08-10T15:09:59.280Z,35.99
2022-08-10T15:12:27.078Z,35.95
2022-08-10T15:14:58.509Z,36.06
2022-08-10T15:17:35.181Z,36.05
2022-08-10T15:20:14.214Z,36.08
2022-08-10T15:22:49.787Z,36.15
2022-08-10T15:25:24.307Z,36.18
2022-08-10T15:27:56.930Z,36.23
2022-08-10T15:30:31.129Z,36.45
2022-08-10T15:33:21.426Z,36.46
2022-08-10T15:36:26.821Z,36.45
2022-08-10T15:39:00.098Z,36.49
2022-08-10T15:41:58.642Z,36.59
2022-08-10T15:44:44.235Z,36.57
2022-08-10T15:47:25.795Z,36.52
2022-08-10T15:49:54.700Z,36.54
2022-08-10T15:53:00.977Z,36.55
2022-08-10T15:55:41.359Z,36.56
2022-08-10T15:58:19.764Z,36.54
2022-08-10T16:00:54.956Z,36.47
2022-08-10T16:03:37.787Z,36.18
2022-08-10T16:06:06.898Z,36.08
2022-08-10T16:08:56.574Z,36.11
2022-08-10T16:11:37.440Z,36.10
2022-08-10T16:14:21.239Z,36.13
2022-08-10T16:16:50.553Z,36.13
2022-08-10T16:19:24.934Z,36.20
2022-08-10T16:22:34.116Z,36.20
2022-08-10T16:24:59.802Z,36.08
2022-08-10T16:27:30.165Z,36.10
2022-08-10T16:30:00.643Z,36.12
2022-08-10T16:32:30.528Z,36.05
2022-08-10T16:34:59.827Z,35.95
2022-08-10T16:37:56.429Z,36.03
2022-08-10T16:40:24.428Z,35.87
2022-08-10T16:42:52.279Z,35.72
2022-08-10T16:45:44.086Z,35.60
2022-08-10T16:48:13.761Z,35.29
2022-08-10T16:50:49.797Z,35.01
2022-08-10T16:53:19.566Z,34.65
2022-08-10T16:55:50.834Z,34.20
2022-08-10T16:58:27.626Z,33.75
2022-08-10T17:01:02.039Z,33.38
2022-08-10T17:04:08.456Z,33.05
2022-08-10T17:06:27.865Z,32.74
2022-08-10T17:08:57.150Z,32.51
2022-08-10T17:11:29.242Z,32.28
2022-08-10T17:13:58.504Z,32.06
2022-08-10T17:16:36.675Z,31.81
2022-08-10T17:19:07.261Z,31.59
2022-08-10T17:21:39.757Z,31.40
2022-08-10T17:24:21.919Z,31.16
2022-08-10T17:26:49.655Z,30.85
2022-08-10T17:29:57.703Z,30.78
2022-08-10T17:32:27.716Z,30.58
2022-08-10T17:34:58.594Z,30.40
2022-08-10T17:37:28.566Z,30.27
2022-08-10T17:40:05.674Z,30.10
2022-08-10T17:42:33.817Z,29.97
2022-08-10T17:45:01.388Z,29.85
2022-08-10T17:47:28.115Z,29.72
2022-08-10T17:49:57.143Z,29.59
2022-08-10T17:52:27.234Z,29.45
2022-08-10T17:54:57.207Z,29.28
2022-08-10T17:57:25.314Z,29.12
2022-08-10T17:59:53.973Z,29.14
2022-08-10T18:02:26.854Z,29.08
2022-08-10T18:04:56.923Z,28.99
2022-08-10T18:07:31.517Z,28.87
2022-08-10T18:09:59.534Z,28.76
2022-08-10T18:12:48.983Z,28.60
2022-08-10T18:15:22.177Z,28.52
2022-08-10T18:17:58.346Z,28.45
2022-08-10T18:20:32.737Z,28.31
2022-08-10T18:23:00.839Z,28.12
2022-08-10T18:25:39.955Z,28.11
2022-08-10T18:28:11.275Z,28.00
2022-08-10T18:30:48.898Z,27.87
2022-08-10T18:33:18.136Z,27.78
2022-08-10T18:35:46.648Z,27.67
2022-08-10T18:38:15.655Z,27.62
2022-08-10T18:40:50.418Z,27.53
2022-08-10T18:44:09.858Z,27.31
2022-08-10T18:46:13.028Z,27.32
2022-08-10T18:48:46.978Z,27.20
2022-08-10T18:51:13.784Z,27.14
2022-08-10T18:53:50.532Z,27.06
2022-08-10T18:56:28.949Z,26.96
2022-08-10T18:59:32.647Z,26.85
2022-08-10T19:02:34.399Z,26.74
2022-08-10T19:05:30.210Z,26.66
2022-08-10T19:08:30.015Z,26.55
2022-08-10T19:11:31.236Z,26.47
2022-08-10T19:14:12.833Z,26.39
2022-08-10T19:17:07.467Z,26.29
2022-08-10T19:19:55.912Z,26.21
2022-08-10T19:22:48.182Z,25.94
2022-08-10T19:26:43.363Z,25.91
2022-08-10T19:28:30.612Z,25.87
2022-08-10T19:31:12.212Z,25.81
2022-08-10T19:33:50.625Z,25.70
2022-08-10T19:36:29.471Z,25.65
2022-08-10T19:39:06.310Z,25.55
2022-08-10T19:41:48.165Z,25.46
2022-08-10T19:44:39.026Z,25.36
2022-08-10T19:47:31.776Z,25.25
2022-08-10T19:50:21.680Z,25.02
2022-08-10T19:53:06.419Z,25.12
2022-08-10T19:55:38.851Z,25.03
2022-08-10T19:58:34.716Z,24.89
2022-08-10T20:01:06.943Z,24.79
2022-08-10T20:03:59.399Z,24.70
2022-08-10T20:06:44.023Z,24.46
2022-08-10T20:09:29.893Z,24.47
2022-08-10T20:12:06.975Z,24.35
2022-08-10T20:15:20.654Z,24.20
2022-08-10T20:18:13.910Z,24.14
2022-08-10T20:21:08.193Z,23.98
2022-08-10T20:23:36.682Z,23.96
2022-08-10T20:26:24.778Z,23.88
2022-08-10T20:29:06.880Z,23.73
2022-08-10T20:32:07.712Z,23.68
2022-08-10T20:34:47.764Z,23.61
2022-08-10T20:37:41.025Z,23.53
2022-08-10T20:40:41.555Z,23.38
2022-08-10T20:43:14.060Z,23.32
2022-08-10T20:46:07.405Z,23.21
2022-08-10T20:48:58.556Z,23.15
2022-08-10T20:51:58.159Z,23.10
2022-08-10T20:54:40.128Z,22.92
2022-08-10T20:57:54.164Z,23.01
2022-08-10T21:00:29.025Z,22.93
2022-08-10T21:03:31.662Z,22.90
2022-08-10T21:06:41.734Z,22.86
2022-08-10T21:09:33.223Z,22.84
2022-08-10T21:12:38.300Z,22.76
2022-08-10T21:15:14.007Z,22.72
2022-08-10T21:17:40.565Z,22.67
2022-08-10T21:20:11.391Z,22.61
2022-08-10T21:22:44.873Z,22.55
2022-08-10T21:25:15.438Z,22.52
2022-08-10T21:27:55.445Z,22.46
2022-08-10T21:31:09.387Z,22.38
2022-08-10T21:34:14.010Z,22.26
2022-08-10T21:36:51.211Z,22.30
2022-08-10T21:39:46.962Z,22.10
2022-08-10T21:43:02.619Z,22.14
2022-08-10T21:46:05.597Z,22.18
2022-08-10T21:49:22.847Z,22.15
2022-08-10T21:52:53.546Z,22.07
2022-08-10T21:55:57.255Z,22.00
2022-08-10T21:58:50.711Z,21.71
2022-08-10T22:01:57.439Z,21.80
2022-08-10T22:04:44.770Z,21.76
2022-08-10T22:07:35.964Z,21.74
2022-08-10T22:10:25.677Z,21.69
2022-08-10T22:13:13.078Z,21.66
2022-08-10T22:16:11.488Z,21.63
2022-08-10T22:19:02.710Z,21.58
2022-08-10T22:21:48.696Z,21.55
2022-08-10T22:24:47.984Z,21.52
2022-08-10T22:27:56.943Z,21.44
2022-08-10T22:31:14.960Z,21.42
2022-08-10T22:34:17.621Z,21.35
2022-08-10T22:37:24.442Z,21.32
2022-08-10T22:40:28.608Z,21.25
2022-08-10T22:43:31.095Z,21.22
2022-08-10T22:46:24.936Z,21.12
2022-08-10T22:49:00.786Z,21.09
2022-08-10T22:51:51.823Z,21.08
2022-08-10T22:54:44.489Z,21.06
2022-08-10T22:57:34.545Z,21.01
2022-08-10T23:00:31.519Z,20.99
2022-08-10T23:03:10.932Z,20.95
2022-08-10T23:05:42.196Z,20.91
2022-08-10T23:08:30.516Z,20.89
2022-08-10T23:11:04.139Z,20.81
2022-08-10T23:13:42.256Z,20.76
2022-08-10T23:16:34.756Z,20.69
2022-08-10T23:19:13.707Z,20.65
2022-08-10T23:22:03.434Z,20.44
2022-08-10T23:24:41.961Z,20.50
2022-08-10T23:27:12.483Z,20.44
2022-08-10T23:30:04.030Z,20.26
2022-08-10T23:32:39.811Z,20.31
2022-08-10T23:36:31.402Z,20.28
2022-08-10T23:37:59.258Z,20.22
2022-08-10T23:40:27.020Z,20.12
2022-08-10T23:42:56.384Z,19.97
2022-08-10T23:45:28.655Z,20.01
2022-08-10T23:48:00.191Z,19.98
2022-08-10T23:50:28.718Z,19.88
2022-08-10T23:52:59.420Z,19.88
2022-08-10T23:55:29.936Z,19.72
2022-08-10T23:58:31.534Z,19.53
